createdAt,value
2023-04-15T00:00:58.014Z,65.85
2023-04-15T00:03:46.853Z,65.45
2023-04-15T00:06:35.247Z,64.69
2023-04-15T00:09:23.100Z,64.33
2023-04-15T00:12:13.772Z,64.28
2023-04-15T00:15:03.284Z,64.39
2023-04-15T00:17:52.361Z,64.54
2023-04-15T00:20:43.257Z,64.73
2023-04-15T00:23:31.844Z,65.44
2023-04-15T00:26:20.140Z,65.24
2023-04-15T00:29:07.445Z,65.11
2023-04-15T00:31:57.313Z,65.00
2023-04-15T00:34:46.297Z,65.68
2023-04-15T00:37:37.258Z,65.46
2023-04-15T00:40:26.258Z,65.67
2023-04-15T00:43:13.951Z,65.68
2023-04-15T00:46:04.168Z,65.60
2023-04-15T00:48:55.066Z,65.60
2023-04-15T00:51:48.323Z,65.49
2023-04-15T00:54:36.640Z,66.22
2023-04-15T00:57:24.325Z,66.51
2023-04-15T01:00:13.986Z,66.57
2023-04-15T01:03:02.052Z,66.47
2023-04-15T01:05:58.183Z,67.38
2023-04-15T01:08:46.030Z,66.05
2023-04-15T01:11:34.463Z,66.55
2023-04-15T01:14:27.553Z,66.62
2023-04-15T01:17:15.596Z,67.77
2023-04-15T01:20:10.655Z,66.97
2023-04-15T01:23:00.843Z,67.96
2023-04-15T01:25:50.282Z,67.36
2023-04-15T01:28:40.061Z,68.17
2023-04-15T01:31:27.478Z,68.60
2023-04-15T01:34:19.492Z,70.24
2023-04-15T01:37:11.218Z,72.13
2023-04-15T01:40:01.979Z,72.72
2023-04-15T01:42:51.067Z,73.38
2023-04-15T01:45:39.036Z,72.85
2023-04-15T01:48:33.434Z,72.84
2023-04-15T01:51:20.990Z,72.80
2023-04-15T01:54:08.398Z,73.00
2023-04-15T01:56:56.820Z,73.17
2023-04-15T01:59:47.737Z,73.32
2023-04-15T02:02:36.033Z,74.13
2023-04-15T02:05:24.383Z,74.66
2023-04-15T02:08:12.565Z,74.34
2023-04-15T02:11:01.271Z,74.87
2023-04-15T02:13:48.636Z,74.10
2023-04-15T02:17:02.763Z,74.42
2023-04-15T02:19:50.464Z,74.27
2023-04-15T02:22:38.026Z,75.00
2023-04-15T02:25:25.412Z,75.42
2023-04-15T02:28:12.909Z,75.73
2023-04-15T02:31:04.716Z,75.62
2023-04-15T02:33:56.924Z,74.76
2023-04-15T02:36:44.418Z,75.66
2023-04-15T02:39:35.358Z,75.45
2023-04-15T02:42:23.313Z,75.81
2023-04-15T02:45:13.224Z,75.78
2023-04-15T02:48:06.336Z,75.75
2023-04-15T02:51:11.536Z,75.72
2023-04-15T02:53:58.923Z,75.58
2023-04-15T02:56:50.757Z,75.81
2023-04-15T02:59:39.691Z,76.48
2023-04-15T03:02:33.629Z,76.70
2023-04-15T03:05:21.243Z,76.57
2023-04-15T03:08:15.223Z,77.00
2023-04-15T03:11:02.938Z,77.89
2023-04-15T03:14:07.582Z,77.12
2023-04-15T03:16:55.066Z,78.20
2023-04-15T03:19:42.796Z,77.84
2023-04-15T03:22:31.799Z,77.95
2023-04-15T03:25:24.168Z,78.29
2023-04-15T03:28:29.178Z,78.64
2023-04-15T03:31:17.471Z,78.42
2023-04-15T03:34:16.157Z,78.85
2023-04-15T03:37:07.743Z,79.26
2023-04-15T03:39:56.772Z,79.33
2023-04-15T03:42:46.155Z,78.95
2023-04-15T03:45:34.507Z,79.21
2023-04-15T03:48:21.761Z,79.13
2023-04-15T03:51:09.367Z,79.42
2023-04-15T03:53:57.122Z,79.37
2023-04-15T03:56:44.815Z,79.60
2023-04-15T03:59:34.186Z,78.79
2023-04-15T04:02:23.701Z,78.77
2023-04-15T04:05:15.120Z,79.69
2023-04-15T04:08:02.850Z,79.14
2023-04-15T04:10:50.955Z,79.85
2023-04-15T04:16:42.246Z,79.88
2023-04-15T04:19:30.180Z,80.87
2023-04-15T04:22:17.739Z,81.41
2023-04-15T04:25:22.036Z,80.39
2023-04-15T04:28:09.496Z,80.87
2023-04-15T04:31:04.032Z,80.65
2023-04-15T04:33:53.817Z,81.20
2023-04-15T04:36:46.796Z,81.28
2023-04-15T04:39:33.980Z,80.52
2023-04-15T04:42:22.383Z,80.46
2023-04-15T04:45:10.559Z,81.14
2023-04-15T04:48:01.158Z,82.14
2023-04-15T04:50:52.698Z,81.58
2023-04-15T04:53:40.173Z,81.98
2023-04-15T04:56:27.696Z,81.43
2023-04-15T04:59:15.163Z,82.28
2023-04-15T05:02:03.758Z,81.91
2023-04-15T05:04:54.741Z,82.04
2023-04-15T05:07:44.304Z,82.56
2023-04-15T05:10:34.482Z,82.91
2023-04-15T05:13:22.527Z,82.79
2023-04-15T05:16:15.362Z,83.20
2023-04-15T05:19:03.244Z,82.60
2023-04-15T05:21:51.433Z,82.98
2023-04-15T05:24:40.687Z,83.52
2023-04-15T05:27:28.542Z,83.50
2023-04-15T05:30:25.592Z,83.51
2023-04-15T05:33:20.613Z,83.48
2023-04-15T05:36:08.537Z,84.07
2023-04-15T05:38:56.474Z,83.47
2023-04-15T05:41:48.312Z,83.62
2023-04-15T05:44:37.032Z,83.64
2023-04-15T05:47:24.718Z,83.92
2023-04-15T05:50:12.553Z,83.48
2023-04-15T05:53:02.326Z,83.25
2023-04-15T05:55:50.409Z,82.96
2023-04-15T05:58:39.303Z,83.10
2023-04-15T06:05:11.857Z,82.20
2023-04-15T06:08:05.095Z,82.15
2023-04-15T06:11:12.336Z,82.87
2023-04-15T06:14:01.592Z,82.06
2023-04-15T06:16:48.947Z,82.60
2023-04-15T06:19:41.952Z,82.00
2023-04-15T06:22:46.917Z,82.01
2023-04-15T06:25:36.894Z,81.85
2023-04-15T06:29:35.360Z,82.79
2023-04-15T06:31:46.548Z,82.15
2023-04-15T06:34:57.818Z,81.29
2023-04-15T06:37:45.560Z,81.58
2023-04-15T06:40:48.517Z,81.68
2023-04-15T06:43:42.676Z,81.14
2023-04-15T06:46:34.757Z,80.80
2023-04-15T06:49:26.915Z,79.61
2023-04-15T06:52:16.612Z,79.70
2023-04-15T06:55:39.638Z,78.98
2023-04-15T06:58:29.508Z,78.77
2023-04-15T07:01:17.304Z,77.89
2023-04-15T07:04:06.298Z,77.56
2023-04-15T07:06:58.112Z,76.66
2023-04-15T07:09:56.900Z,76.81
2023-04-15T07:12:48.946Z,76.68
2023-04-15T07:15:39.628Z,76.00
2023-04-15T07:18:28.329Z,76.12
2023-04-15T07:21:20.816Z,76.23
2023-04-15T07:26:58.635Z,74.55
2023-04-15T07:29:48.188Z,72.11
2023-04-15T07:32:36.093Z,72.22
2023-04-15T07:35:32.064Z,71.19
2023-04-15T07:38:19.946Z,71.45
2023-04-15T07:41:11.079Z,70.82
2023-04-15T07:44:00.710Z,68.85
2023-04-15T07:46:48.783Z,69.79
2023-04-15T07:49:40.413Z,69.29
2023-04-15T07:52:28.444Z,69.38
2023-04-15T07:55:19.712Z,68.97
2023-04-15T07:58:07.131Z,69.25
2023-04-15T08:00:57.782Z,69.21
2023-04-15T08:03:49.487Z,66.94
2023-04-15T08:06:57.553Z,68.33
2023-04-15T08:09:52.897Z,68.45
2023-04-15T08:16:13.030Z,69.34
2023-04-15T08:19:04.971Z,68.22
2023-04-15T08:21:52.584Z,68.87
2023-04-15T08:24:39.827Z,68.83
2023-04-15T08:27:27.479Z,68.14
2023-04-15T08:30:18.549Z,67.56
2023-04-15T08:33:36.321Z,67.36
2023-04-15T08:36:28.139Z,67.99
2023-04-15T08:39:15.736Z,68.13
2023-04-15T08:42:05.970Z,68.71
2023-04-15T08:45:32.787Z,68.02
2023-04-15T08:48:20.349Z,67.03
2023-04-15T08:51:09.295Z,68.10
2023-04-15T08:54:02.108Z,67.09
2023-04-15T08:56:51.026Z,67.86
2023-04-15T08:59:40.618Z,67.74
2023-04-15T09:02:30.092Z,66.86
2023-04-15T09:05:18.733Z,66.80
2023-04-15T09:08:09.180Z,66.21
2023-04-15T09:11:03.899Z,65.94
2023-04-15T09:14:04.074Z,66.73
2023-04-15T09:17:01.078Z,66.88
2023-04-15T09:20:10.913Z,66.24
2023-04-15T09:22:58.795Z,65.95
2023-04-15T09:25:50.919Z,66.55
2023-04-15T09:28:51.253Z,64.42
2023-04-15T09:31:44.265Z,64.05
2023-04-15T09:34:39.646Z,64.21
2023-04-15T09:37:35.509Z,63.88
2023-04-15T09:40:33.731Z,63.10
2023-04-15T09:43:21.526Z,62.19
2023-04-15T09:46:10.522Z,61.66
2023-04-15T09:49:07.966Z,63.08
2023-04-15T09:52:05.588Z,62.90
2023-04-15T09:54:56.659Z,61.51
2023-04-15T09:57:47.444Z,61.04
2023-04-15T10:00:35.327Z,60.96
2023-04-15T10:03:29.612Z,61.34
2023-04-15T10:12:54.672Z,61.40
2023-04-15T10:15:48.599Z,60.10
2023-04-15T10:19:03.621Z,61.60
2023-04-15T10:21:54.567Z,60.67
2023-04-15T10:24:49.494Z,61.12
2023-04-15T11:12:37.178Z,57.84
2023-04-15T11:20:10.228Z,58.85
2023-04-15T11:24:15.848Z,59.77
2023-04-15T11:27:03.326Z,59.03
2023-04-15T11:29:54.301Z,57.77
2023-04-15T11:32:44.740Z,57.76
2023-04-15T11:35:33.821Z,57.79
2023-04-15T11:38:56.541Z,57.74
2023-04-15T11:41:49.825Z,56.41
2023-04-15T11:44:37.505Z,56.79
2023-04-15T11:47:32.267Z,57.00
2023-04-15T11:50:25.614Z,56.49
2023-04-15T11:53:16.967Z,55.87
2023-04-15T11:59:30.239Z,58.73
2023-04-15T12:02:39.353Z,57.42
2023-04-15T12:05:27.274Z,56.11
2023-04-15T12:08:54.565Z,56.95
2023-04-15T12:11:46.586Z,55.33
2023-04-15T12:14:36.723Z,56.14
2023-04-15T12:17:24.642Z,58.76
2023-04-15T12:20:14.391Z,56.92
2023-04-15T12:23:06.451Z,56.48
2023-04-15T12:26:16.580Z,57.35
2023-04-15T12:29:08.409Z,57.12
2023-04-15T12:31:57.763Z,57.13
2023-04-15T12:34:50.721Z,57.93
2023-04-15T12:37:51.000Z,56.41
2023-04-15T12:40:39.042Z,55.07
2023-04-15T12:43:48.151Z,55.92
2023-04-15T12:47:00.518Z,57.15
2023-04-15T12:49:49.760Z,57.08
2023-04-15T12:52:37.588Z,57.04
2023-04-15T12:55:32.804Z,55.75
2023-04-15T12:58:37.286Z,56.43
2023-04-15T13:01:32.572Z,55.95
2023-04-15T13:04:25.254Z,56.58
2023-04-15T13:07:16.011Z,57.69
2023-04-15T13:10:03.360Z,57.53
2023-04-15T13:12:53.706Z,56.31
2023-04-15T13:15:41.403Z,56.54
2023-04-15T13:18:31.609Z,56.35
2023-04-15T13:21:22.663Z,56.13
2023-04-15T13:24:10.118Z,56.63
2023-04-15T13:26:59.758Z,55.91
2023-04-15T13:29:53.013Z,56.91
2023-04-15T13:32:40.654Z,58.58
2023-04-15T13:35:33.235Z,58.18
2023-04-15T13:38:23.862Z,57.80
2023-04-15T13:41:16.615Z,57.05
2023-04-15T13:44:06.412Z,60.29
2023-04-15T13:47:06.542Z,61.18
2023-04-15T13:49:56.336Z,60.47
2023-04-15T13:52:45.773Z,59.36
2023-04-15T13:55:35.286Z,58.88
2023-04-15T13:58:29.896Z,59.36
2023-04-15T14:01:17.842Z,58.98
2023-04-15T14:04:13.933Z,59.64
2023-04-15T14:07:10.765Z,59.80
2023-04-15T14:10:18.061Z,60.90
2023-04-15T14:30:37.454Z,62.31
2023-04-15T14:33:30.001Z,61.15
2023-04-15T14:36:24.567Z,61.40
2023-04-15T14:39:14.487Z,61.00
2023-04-15T14:42:02.710Z,61.53
2023-04-15T14:44:52.449Z,62.36
2023-04-15T14:47:45.447Z,62.55
2023-04-15T14:50:35.906Z,61.69
2023-04-15T14:53:31.153Z,62.07
2023-04-15T14:56:23.870Z,62.08
2023-04-15T14:59:11.369Z,63.06
2023-04-15T15:02:02.366Z,63.02
2023-04-15T15:04:54.731Z,61.28
2023-04-15T15:07:57.047Z,61.41
2023-04-15T15:10:48.418Z,61.94
2023-04-15T15:13:57.057Z,61.93
2023-04-15T15:17:02.468Z,62.29
2023-04-15T15:20:18.074Z,62.80
2023-04-15T15:23:09.985Z,61.52
2023-04-15T15:25:58.438Z,60.87
2023-04-15T15:28:47.459Z,61.94
2023-04-15T15:31:47.059Z,62.63
2023-04-15T15:34:34.849Z,63.11
2023-04-15T15:37:24.291Z,63.59
2023-04-15T15:40:23.888Z,65.88
2023-04-15T15:43:11.670Z,67.40
2023-04-15T15:46:00.757Z,67.62
2023-04-15T15:48:57.037Z,67.32
2023-04-15T15:51:54.172Z,64.98
2023-04-15T15:54:55.806Z,64.79
2023-04-15T15:57:58.504Z,65.44
2023-04-15T16:00:48.090Z,67.42
2023-04-15T16:03:35.996Z,67.77
2023-04-15T16:06:27.927Z,66.91
2023-04-15T16:09:25.454Z,67.56
2023-04-15T16:12:18.995Z,67.64
2023-04-15T16:15:15.751Z,67.60
2023-04-15T16:18:17.751Z,66.97
2023-04-15T16:21:11.006Z,67.27
2023-04-15T16:23:58.929Z,67.64
2023-04-15T16:26:49.068Z,67.77
2023-04-15T16:29:38.353Z,68.06
2023-04-15T16:32:26.680Z,68.39
2023-04-15T16:35:16.946Z,65.59
2023-04-15T16:38:32.428Z,67.29
2023-04-15T16:41:27.418Z,66.16
2023-04-15T16:44:27.913Z,67.66
2023-04-15T16:47:20.189Z,68.40
2023-04-15T16:50:11.738Z,67.24
2023-04-15T16:52:59.314Z,68.41
2023-04-15T16:55:46.934Z,66.79
2023-04-15T16:58:34.455Z,65.04
2023-04-15T17:01:25.651Z,66.13
2023-04-15T17:04:14.714Z,64.85
2023-04-15T17:07:02.286Z,65.83
2023-04-15T17:09:49.695Z,67.82
2023-04-15T17:12:40.069Z,69.31
2023-04-15T17:15:27.845Z,69.72
2023-04-15T17:18:18.853Z,70.01
2023-04-15T17:21:20.861Z,70.46
2023-04-15T17:24:25.516Z,70.84
2023-04-15T17:27:13.744Z,71.62
2023-04-15T17:30:01.790Z,71.69
2023-04-15T17:32:51.075Z,71.28
2023-04-15T17:35:39.955Z,72.03
2023-04-15T17:38:28.867Z,73.14
2023-04-15T17:41:16.447Z,73.79
2023-04-15T17:44:04.071Z,73.38
2023-04-15T17:46:51.746Z,72.88
2023-04-15T17:49:43.140Z,73.76
2023-04-15T17:52:30.733Z,73.58
2023-04-15T17:55:19.556Z,72.85
2023-04-15T17:58:39.590Z,71.56
2023-04-15T18:01:27.319Z,72.08
2023-04-15T18:04:15.029Z,72.69
2023-04-15T18:07:16.013Z,73.01
2023-04-15T18:10:20.421Z,73.06
2023-04-15T18:13:09.460Z,73.73
2023-04-15T18:16:16.443Z,73.32
2023-04-15T18:19:03.736Z,74.36
2023-04-15T18:22:00.452Z,75.19
2023-04-15T18:27:56.480Z,74.76
2023-04-15T18:30:45.159Z,76.12
2023-04-15T18:33:32.547Z,75.92
2023-04-15T18:36:20.931Z,76.58
2023-04-15T18:39:08.694Z,74.24
2023-04-15T18:41:57.711Z,74.82
2023-04-15T18:44:44.922Z,74.05
2023-04-15T18:47:33.889Z,74.58
2023-04-15T18:50:21.702Z,75.39
2023-04-15T18:53:09.323Z,75.18
2023-04-15T18:55:58.018Z,75.55
2023-04-15T18:59:23.054Z,75.81
2023-04-15T19:05:38.697Z,76.32
2023-04-15T19:08:26.360Z,76.54
2023-04-15T19:11:14.033Z,76.15
2023-04-15T19:14:01.601Z,75.99
2023-04-15T19:16:49.914Z,75.33
2023-04-15T19:19:49.438Z,76.45
2023-04-15T19:22:49.222Z,76.93
2023-04-15T19:25:38.471Z,76.20
2023-04-15T19:28:28.326Z,75.36
2023-04-15T19:31:23.613Z,74.96
2023-04-15T19:34:13.927Z,75.71
2023-04-15T19:37:01.653Z,75.92
2023-04-15T19:39:50.578Z,75.08
2023-04-15T19:42:38.686Z,75.36
2023-04-15T19:45:38.027Z,75.74
2023-04-15T19:48:26.054Z,76.26
2023-04-15T19:51:14.578Z,75.97
2023-04-15T19:54:31.265Z,75.73
2023-04-15T19:57:52.505Z,76.05
2023-04-15T20:01:01.669Z,75.83
2023-04-15T20:04:16.800Z,76.42
2023-04-15T20:07:06.654Z,76.38
2023-04-15T20:09:54.028Z,76.28
2023-04-15T20:12:51.328Z,76.29
2023-04-15T20:15:39.866Z,76.54
2023-04-15T20:18:27.343Z,76.43
2023-04-15T20:21:14.697Z,76.17
2023-04-15T20:24:02.527Z,76.17
2023-04-15T20:26:50.119Z,76.17
2023-04-15T20:29:45.167Z,76.13
2023-04-15T20:32:41.155Z,76.47
2023-04-15T20:35:31.169Z,76.93
2023-04-15T20:38:19.189Z,76.83
2023-04-15T20:41:37.692Z,77.32
2023-04-15T20:48:22.819Z,76.93
2023-04-15T20:51:10.448Z,77.49
2023-04-15T20:53:58.172Z,77.75
2023-04-15T20:56:45.512Z,77.53
2023-04-15T20:59:36.016Z,77.45
2023-04-15T21:02:24.367Z,78.44
2023-04-15T21:05:24.636Z,77.93
2023-04-15T21:08:52.709Z,78.58
2023-04-15T21:15:24.163Z,78.42
2023-04-15T21:18:11.825Z,78.45
2023-04-15T21:21:04.681Z,78.91
2023-04-15T21:24:05.983Z,78.91
2023-04-15T21:26:56.353Z,78.49
2023-04-15T21:29:51.198Z,78.74
2023-04-15T21:32:38.915Z,78.70
2023-04-15T21:35:53.706Z,79.04
2023-04-15T21:38:42.627Z,79.41
2023-04-15T21:41:31.195Z,79.25
2023-04-15T21:44:40.503Z,79.41
2023-04-15T21:47:30.804Z,79.07
2023-04-15T21:50:39.379Z,79.41
2023-04-15T21:53:45.129Z,79.81
2023-04-15T21:56:37.320Z,79.54
2023-04-15T21:59:55.582Z,79.65
2023-04-15T22:02:48.811Z,80.07
2023-04-15T22:05:36.917Z,80.41
2023-04-15T22:08:25.067Z,80.80
2023-04-15T22:11:29.321Z,81.00
2023-04-15T22:14:19.381Z,81.45
2023-04-15T22:17:09.400Z,81.40
2023-04-15T22:19:57.292Z,82.15
2023-04-15T22:22:45.019Z,83.64
2023-04-15T22:25:37.012Z,85.28
2023-04-15T22:28:24.606Z,85.74
2023-04-15T22:31:31.504Z,86.71
2023-04-15T22:34:32.602Z,87.20
2023-04-15T22:37:20.744Z,88.13
2023-04-15T22:40:13.472Z,89.17
2023-04-15T22:43:20.114Z,90.11
2023-04-15T22:46:44.466Z,90.13
2023-04-15T22:49:35.163Z,90.66
2023-04-15T22:52:35.009Z,91.74
2023-04-15T22:55:30.491Z,91.15
2023-04-15T22:58:37.234Z,91.74
2023-04-15T23:01:43.037Z,92.73
2023-04-15T23:04:36.852Z,92.17
2023-04-15T23:07:24.427Z,93.19
2023-04-15T23:10:30.298Z,92.85
2023-04-15T23:13:22.705Z,93.04
2023-04-15T23:16:10.496Z,93.34
2023-04-15T23:19:00.664Z,93.52
2023-04-15T23:21:54.521Z,94.66
2023-04-15T23:24:47.513Z,94.28
2023-04-15T23:27:40.420Z,95.15
2023-04-15T23:30:36.783Z,94.27
2023-04-15T23:33:27.047Z,94.47
2023-04-15T23:36:16.333Z,94.65
2023-04-15T23:39:09.232Z,94.91
2023-04-15T23:41:57.789Z,94.89
2023-04-15T23:45:28.726Z,95.03
2023-04-15T23:48:21.732Z,95.29
2023-04-15T23:51:48.586Z,94.69
2023-04-15T23:54:47.458Z,94.44
2023-04-15T23:57:35.445Z,95.51
